createdAt,value
2019-02-05T00:00:45.708Z,57.95
2019-02-05T00:03:17.618Z,58.51
2019-02-05T00:05:46.910Z,58.59
2019-02-05T00:08:16.134Z,58.75
2019-02-05T00:10:45.373Z,58.65
2019-02-05T00:13:14.952Z,58.73
2019-02-05T00:15:44.190Z,58.89
2019-02-05T00:18:13.696Z,58.83
2019-02-05T00:20:42.937Z,58.95
2019-02-05T00:23:12.136Z,58.94
2019-02-05T00:25:41.368Z,58.98
2019-02-05T00:28:10.913Z,59.16
2019-02-05T00:30:40.140Z,59.25
2019-02-05T00:33:09.414Z,59.59
2019-02-05T00:35:38.656Z,59.42
2019-02-05T00:38:07.851Z,59.58
2019-02-05T00:40:37.060Z,59.79
2019-02-05T00:43:06.683Z,60.29
2019-02-05T00:45:35.875Z,60.46
2019-02-05T00:48:05.174Z,60.38
2019-02-05T00:50:34.369Z,60.78
2019-02-05T00:53:04.347Z,60.36
2019-02-05T00:55:33.604Z,60.45
2019-02-05T00:58:03.226Z,60.50
2019-02-05T01:00:33.164Z,60.60
2019-02-05T01:03:02.489Z,59.83
2019-02-05T01:05:31.733Z,59.08
2019-02-05T01:08:01.408Z,59.37
2019-02-05T01:10:30.903Z,58.89
2019-02-05T01:13:00.136Z,58.78
2019-02-05T01:15:29.339Z,59.22
2019-02-05T01:17:58.585Z,58.63
2019-02-05T01:20:27.849Z,58.40
2019-02-05T01:22:57.080Z,58.38
2019-02-05T01:25:26.284Z,58.70
2019-02-05T01:27:55.495Z,58.45
2019-02-05T01:30:26.912Z,58.65
2019-02-05T01:32:56.144Z,58.96
2019-02-05T01:35:25.363Z,58.97
2019-02-05T01:37:54.768Z,58.84
2019-02-05T01:40:26.449Z,58.88
2019-02-05T01:42:55.835Z,59.17
2019-02-05T01:45:25.482Z,59.24
2019-02-05T01:47:54.757Z,59.31
2019-02-05T01:50:27.906Z,59.36
2019-02-05T01:52:57.273Z,59.32
2019-02-05T01:55:26.475Z,59.42
2019-02-05T01:57:55.791Z,59.46
2019-02-05T02:00:30.808Z,59.64
2019-02-05T02:03:00.334Z,60.02
2019-02-05T02:05:29.540Z,59.91
2019-02-05T02:07:59.166Z,60.00
2019-02-05T02:10:30.159Z,60.31
2019-02-05T02:12:59.400Z,60.14
2019-02-05T02:15:29.039Z,60.17
2019-02-05T02:17:58.262Z,60.21
2019-02-05T02:20:27.468Z,60.61
2019-02-05T02:22:57.159Z,60.80
2019-02-05T02:25:26.359Z,60.55
2019-02-05T02:27:55.602Z,61.08
2019-02-05T02:30:26.942Z,61.16
2019-02-05T02:32:56.176Z,61.41
2019-02-05T02:35:25.380Z,61.45
2019-02-05T02:37:54.889Z,61.54
2019-02-05T02:40:24.128Z,61.83
2019-02-05T02:42:53.358Z,61.74
2019-02-05T02:45:22.554Z,61.82
2019-02-05T02:47:51.809Z,62.03
2019-02-05T02:50:22.179Z,61.61
2019-02-05T02:52:51.695Z,61.86
2019-02-05T02:55:20.901Z,62.13
2019-02-05T02:57:50.137Z,62.38
2019-02-05T03:00:21.170Z,62.29
2019-02-05T03:02:51.682Z,62.60
2019-02-05T03:05:23.428Z,62.27
2019-02-05T03:07:52.622Z,62.16
2019-02-05T03:10:23.755Z,62.41
2019-02-05T03:12:53.525Z,62.77
2019-02-05T03:15:22.717Z,62.47
2019-02-05T03:17:51.992Z,62.31
2019-02-05T03:20:21.227Z,62.92
2019-02-05T03:22:50.839Z,63.31
2019-02-05T03:25:21.985Z,63.20
2019-02-05T03:27:53.831Z,63.84
2019-02-05T03:30:23.728Z,64.85
2019-02-05T03:32:54.033Z,64.61
2019-02-05T03:35:24.233Z,65.20
2019-02-05T03:37:53.540Z,65.41
2019-02-05T03:40:31.707Z,66.74
2019-02-05T03:43:01.935Z,66.91
2019-02-05T03:45:31.518Z,67.45
2019-02-05T03:48:02.746Z,68.53
2019-02-05T03:50:33.848Z,69.13
2019-02-05T03:53:25.549Z,68.97
2019-02-05T03:56:19.300Z,69.66
2019-02-05T03:58:52.161Z,69.35
2019-02-05T04:01:42.518Z,69.95
2019-02-05T04:04:20.304Z,70.46
2019-02-05T04:07:07.550Z,70.33
2019-02-05T04:09:48.990Z,70.48
2019-02-05T04:12:24.595Z,69.61
2019-02-05T04:14:57.473Z,69.51
2019-02-05T04:17:44.803Z,69.63
2019-02-05T04:20:50.586Z,69.88
2019-02-05T04:23:38.077Z,69.27
2019-02-05T04:26:19.284Z,68.89
2019-02-05T04:29:09.114Z,69.15
2019-02-05T04:31:44.227Z,68.79
2019-02-05T04:34:16.735Z,69.09
2019-02-05T04:37:04.632Z,69.24
2019-02-05T04:39:43.161Z,69.48
2019-02-05T04:42:18.299Z,69.31
2019-02-05T04:45:03.346Z,70.03
2019-02-05T04:47:56.722Z,69.90
2019-02-05T04:50:38.151Z,69.98
2019-02-05T04:53:25.885Z,70.29
2019-02-05T04:56:01.294Z,70.62
2019-02-05T04:58:51.740Z,70.53
2019-02-05T05:01:33.098Z,70.79
2019-02-05T05:04:11.311Z,70.81
2019-02-05T05:07:11.286Z,70.92
2019-02-05T05:09:55.609Z,70.75
2019-02-05T05:12:25.730Z,70.74
2019-02-05T05:14:54.992Z,70.65
2019-02-05T05:17:24.219Z,70.51
2019-02-05T05:19:53.457Z,70.51
2019-02-05T05:22:22.663Z,70.61
2019-02-05T05:24:51.900Z,70.49
2019-02-05T05:27:21.198Z,70.78
2019-02-05T05:29:50.407Z,70.61
2019-02-05T05:32:19.640Z,70.52
2019-02-05T05:34:48.852Z,70.46
2019-02-05T05:37:17.159Z,70.43
2019-02-05T05:39:46.360Z,70.63
2019-02-05T05:42:15.567Z,70.88
2019-02-05T05:44:45.201Z,70.83
2019-02-05T05:47:14.392Z,71.22
2019-02-05T05:49:43.626Z,71.18
2019-02-05T05:52:12.828Z,71.41
2019-02-05T05:54:42.433Z,71.62
2019-02-05T05:57:11.676Z,71.83
2019-02-05T05:59:40.882Z,71.55
2019-02-05T06:02:10.128Z,71.88
2019-02-05T06:04:39.589Z,72.11
2019-02-05T06:07:08.806Z,72.01
2019-02-05T06:09:38.044Z,72.32
2019-02-05T06:12:07.248Z,72.15
2019-02-05T06:14:36.486Z,72.16
2019-02-05T06:17:06.179Z,71.81
2019-02-05T06:19:35.423Z,71.96
2019-02-05T06:22:04.728Z,71.80
2019-02-05T06:24:34.405Z,72.04
2019-02-05T06:27:04.238Z,72.02
2019-02-05T06:29:33.484Z,72.05
2019-02-05T06:32:02.721Z,72.13
2019-02-05T06:34:31.924Z,72.32
2019-02-05T06:37:01.173Z,72.25
2019-02-05T06:39:30.376Z,72.41
2019-02-05T06:41:59.608Z,72.36
2019-02-05T06:44:28.896Z,72.42
2019-02-05T06:46:58.281Z,73.04
2019-02-05T06:49:27.754Z,73.23
2019-02-05T06:51:56.996Z,73.57
2019-02-05T06:54:26.230Z,73.48
2019-02-05T06:56:55.761Z,73.93
2019-02-05T06:59:25.077Z,74.04
2019-02-05T07:01:54.318Z,74.04
2019-02-05T07:04:23.938Z,74.42
2019-02-05T07:06:53.267Z,74.89
2019-02-05T07:09:22.619Z,74.74
2019-02-05T07:11:51.859Z,74.98
2019-02-05T07:14:21.103Z,75.11
2019-02-05T07:16:50.377Z,74.67
2019-02-05T07:19:19.707Z,74.98
2019-02-05T07:21:49.264Z,75.28
2019-02-05T07:24:18.459Z,75.19
2019-02-05T07:26:47.724Z,75.43
2019-02-05T07:29:16.924Z,75.20
2019-02-05T07:31:46.176Z,75.10
2019-02-05T07:34:15.381Z,75.36
2019-02-05T07:36:44.992Z,75.50
2019-02-05T07:39:14.284Z,75.91
2019-02-05T07:41:43.521Z,75.93
2019-02-05T07:44:12.725Z,75.88
2019-02-05T07:46:41.938Z,76.06
2019-02-05T07:49:11.177Z,76.12
2019-02-05T07:51:40.423Z,76.18
2019-02-05T07:54:09.640Z,75.94
2019-02-05T07:56:40.682Z,75.81
2019-02-05T07:59:10.655Z,75.82
2019-02-05T08:01:40.050Z,76.27
2019-02-05T08:04:09.291Z,76.39
2019-02-05T08:06:38.506Z,76.28
2019-02-05T08:09:09.044Z,76.23
2019-02-05T08:11:41.343Z,75.99
2019-02-05T08:14:11.545Z,76.11
2019-02-05T08:16:40.758Z,75.82
2019-02-05T08:19:09.999Z,75.76
2019-02-05T08:21:39.283Z,75.65
2019-02-05T08:24:08.485Z,75.30
2019-02-05T08:26:37.739Z,75.14
2019-02-05T08:29:06.981Z,75.24
2019-02-05T08:31:36.221Z,74.94
2019-02-05T08:34:05.980Z,74.88
2019-02-05T08:36:35.574Z,75.36
2019-02-05T08:39:07.182Z,75.33
2019-02-05T08:41:37.412Z,75.45
2019-02-05T08:44:06.618Z,75.47
2019-02-05T08:46:36.040Z,75.38
2019-02-05T08:49:05.577Z,75.43
2019-02-05T08:51:34.843Z,74.97
2019-02-05T08:54:04.263Z,75.13
2019-02-05T08:56:33.521Z,75.01
2019-02-05T08:59:02.784Z,74.82
2019-02-05T09:01:31.992Z,74.62
2019-02-05T09:04:01.201Z,74.92
2019-02-05T09:06:30.438Z,74.56
2019-02-05T09:08:59.712Z,74.74
2019-02-05T09:11:28.965Z,74.30
2019-02-05T09:13:58.170Z,73.91
2019-02-05T09:16:27.412Z,73.98
2019-02-05T09:18:56.951Z,73.80
2019-02-05T09:21:26.216Z,73.69
2019-02-05T09:23:55.567Z,73.40
2019-02-05T09:26:24.783Z,73.25
2019-02-05T09:28:54.049Z,73.76
2019-02-05T09:31:23.329Z,73.66
2019-02-05T09:33:52.592Z,73.58
2019-02-05T09:36:21.974Z,73.07
2019-02-05T09:38:51.218Z,73.41
2019-02-05T09:41:20.475Z,73.23
2019-02-05T09:43:49.680Z,72.78
2019-02-05T09:46:18.940Z,73.03
2019-02-05T09:48:48.157Z,72.42
2019-02-05T09:51:17.403Z,72.47
2019-02-05T09:53:46.621Z,71.88
2019-02-05T09:56:15.866Z,71.96
2019-02-05T09:58:45.075Z,71.55
2019-02-05T10:01:14.478Z,71.75
2019-02-05T10:03:43.683Z,71.17
2019-02-05T10:06:12.928Z,71.02
2019-02-05T10:08:42.553Z,70.39
2019-02-05T10:11:11.768Z,70.22
2019-02-05T10:13:41.017Z,70.26
2019-02-05T10:16:10.221Z,69.74
2019-02-05T10:18:39.519Z,69.35
2019-02-05T10:21:08.723Z,69.59
2019-02-05T10:23:37.963Z,69.18
2019-02-05T10:26:07.605Z,69.17
2019-02-05T10:28:36.811Z,69.22
2019-02-05T10:31:06.020Z,69.44
2019-02-05T10:33:35.276Z,69.10
2019-02-05T10:36:05.049Z,68.91
2019-02-05T10:38:34.314Z,68.55
2019-02-05T10:41:04.613Z,68.12
2019-02-05T10:43:33.863Z,68.62
2019-02-05T10:46:04.188Z,67.55
2019-02-05T10:48:33.419Z,68.14
2019-02-05T10:51:02.665Z,67.54
2019-02-05T10:53:31.924Z,67.44
2019-02-05T10:56:01.145Z,67.33
2019-02-05T10:58:30.782Z,67.22
2019-02-05T11:01:00.000Z,67.56
2019-02-05T11:03:29.230Z,67.73
2019-02-05T11:05:58.440Z,67.39
2019-02-05T11:08:27.697Z,67.20
2019-02-05T11:10:56.907Z,66.79
2019-02-05T11:13:26.164Z,66.46
2019-02-05T11:15:55.434Z,66.13
2019-02-05T11:18:24.678Z,66.08
2019-02-05T11:20:53.886Z,65.60
2019-02-05T11:23:23.121Z,65.25
2019-02-05T11:25:52.338Z,65.34
2019-02-05T11:28:21.663Z,65.39
2019-02-05T11:30:51.207Z,65.72
2019-02-05T11:33:20.477Z,65.70
2019-02-05T11:35:49.683Z,65.56
2019-02-05T11:38:19.054Z,65.40
2019-02-05T11:40:48.687Z,65.29
2019-02-05T11:43:17.948Z,65.68
2019-02-05T11:45:47.231Z,65.07
2019-02-05T11:48:16.821Z,65.01
2019-02-05T11:50:46.109Z,65.74
2019-02-05T11:53:15.380Z,65.02
2019-02-05T11:55:44.732Z,65.90
2019-02-05T11:58:14.005Z,66.24
2019-02-05T12:00:44.866Z,66.27
2019-02-05T12:03:14.118Z,66.31
2019-02-05T12:05:43.332Z,66.79
2019-02-05T12:08:12.552Z,66.61
2019-02-05T12:10:41.805Z,66.77
2019-02-05T12:13:11.038Z,66.85
2019-02-05T12:15:40.246Z,66.86
2019-02-05T12:18:09.656Z,67.02
2019-02-05T12:20:38.900Z,66.59
2019-02-05T12:23:08.226Z,66.67
2019-02-05T12:25:37.438Z,67.06
2019-02-05T12:28:06.737Z,67.13
2019-02-05T12:30:44.879Z,66.96
2019-02-05T12:33:11.596Z,66.78
2019-02-05T12:35:40.802Z,67.30
2019-02-05T12:38:10.084Z,67.37
2019-02-05T12:40:39.292Z,67.70
2019-02-05T12:43:08.514Z,67.52
2019-02-05T12:45:38.613Z,67.62
2019-02-05T12:48:08.103Z,68.37
2019-02-05T12:50:39.310Z,68.44
2019-02-05T12:53:08.560Z,68.62
2019-02-05T12:55:37.808Z,69.22
2019-02-05T12:58:07.241Z,69.59
2019-02-05T13:00:38.683Z,69.80
2019-02-05T13:03:08.691Z,70.11
2019-02-05T13:05:38.251Z,71.07
2019-02-05T13:08:07.469Z,70.96
2019-02-05T13:10:39.419Z,71.65
2019-02-05T13:13:08.915Z,71.77
2019-02-05T13:15:38.136Z,72.35
2019-02-05T13:18:07.531Z,72.23
2019-02-05T13:20:37.187Z,72.62
2019-02-05T13:23:07.010Z,72.32
2019-02-05T13:25:36.214Z,73.00
2019-02-05T13:28:07.401Z,73.09
2019-02-05T13:30:37.640Z,73.03
2019-02-05T13:33:08.770Z,72.71
2019-02-05T13:35:38.024Z,73.32
2019-02-05T13:38:07.314Z,72.67
2019-02-05T13:40:36.580Z,72.87
2019-02-05T13:43:06.051Z,72.92
2019-02-05T13:45:37.468Z,72.64
2019-02-05T13:48:07.130Z,72.91
2019-02-05T13:50:36.376Z,72.53
2019-02-05T13:53:06.141Z,72.65
2019-02-05T13:55:38.203Z,72.82
2019-02-05T13:58:07.395Z,73.20
2019-02-05T14:00:45.129Z,73.22
2019-02-05T14:03:14.349Z,73.90
2019-02-05T14:05:43.676Z,74.08
2019-02-05T14:08:12.891Z,74.47
2019-02-05T14:10:46.742Z,74.67
2019-02-05T14:13:15.953Z,74.82
2019-02-05T14:15:47.834Z,74.73
2019-02-05T14:18:17.127Z,75.17
2019-02-05T14:20:46.467Z,74.99
2019-02-05T14:23:15.810Z,75.26
2019-02-05T14:25:45.095Z,75.61
2019-02-05T14:28:14.434Z,75.79
2019-02-05T14:30:52.316Z,75.82
2019-02-05T14:33:21.999Z,75.88
2019-02-05T14:35:51.250Z,76.00
2019-02-05T14:38:20.453Z,76.46
2019-02-05T14:40:49.715Z,76.37
2019-02-05T14:43:18.953Z,76.34
2019-02-05T14:45:48.343Z,76.81
2019-02-05T14:48:17.607Z,76.78
2019-02-05T14:50:47.945Z,77.36
2019-02-05T14:53:17.280Z,77.23
2019-02-05T14:55:46.500Z,77.32
2019-02-05T14:58:15.702Z,77.69
2019-02-05T15:00:45.036Z,77.50
2019-02-05T15:03:14.607Z,77.78
2019-02-05T15:05:45.104Z,77.86
2019-02-05T15:08:14.757Z,77.90
2019-02-05T15:10:43.961Z,77.85
2019-02-05T15:13:15.893Z,78.21
2019-02-05T15:15:44.513Z,78.33
2019-02-05T15:18:13.776Z,78.55
2019-02-05T15:20:47.484Z,78.91
2019-02-05T15:23:17.780Z,79.20
2019-02-05T15:25:47.029Z,79.27
2019-02-05T15:28:16.232Z,79.30
2019-02-05T15:30:45.734Z,79.59
2019-02-05T15:33:29.950Z,79.82
2019-02-05T15:36:00.829Z,80.09
2019-02-05T15:38:30.444Z,80.62
2019-02-05T15:40:59.695Z,80.87
2019-02-05T15:43:28.898Z,81.39
2019-02-05T15:45:58.191Z,81.72
2019-02-05T15:48:27.414Z,82.05
2019-02-05T15:50:56.648Z,82.42
2019-02-05T15:53:26.326Z,82.85
2019-02-05T15:55:55.579Z,82.73
2019-02-05T15:58:24.777Z,83.32
2019-02-05T16:00:54.010Z,83.96
2019-02-05T16:03:24.199Z,84.33
2019-02-05T16:05:53.443Z,84.26
2019-02-05T16:08:22.923Z,84.14
2019-02-05T16:10:53.062Z,84.44
2019-02-05T16:13:22.262Z,84.29
2019-02-05T16:15:51.510Z,84.03
2019-02-05T16:18:20.767Z,84.20
2019-02-05T16:20:50.086Z,83.94
2019-02-05T16:23:19.569Z,84.02
2019-02-05T16:25:48.820Z,84.13
2019-02-05T16:28:18.176Z,84.33
2019-02-05T16:30:47.438Z,84.40
2019-02-05T16:33:16.636Z,84.18
2019-02-05T16:35:45.948Z,84.69
2019-02-05T16:38:15.572Z,84.73
2019-02-05T16:40:45.132Z,84.66
2019-02-05T16:43:14.324Z,84.76
2019-02-05T16:45:43.624Z,84.90
2019-02-05T16:48:12.873Z,84.71
2019-02-05T16:50:44.786Z,84.80
2019-02-05T16:53:14.246Z,84.80
2019-02-05T16:55:43.515Z,84.83
2019-02-05T16:58:12.713Z,84.82
2019-02-05T17:00:41.963Z,84.90
2019-02-05T17:03:11.463Z,84.82
2019-02-05T17:05:42.250Z,84.82
2019-02-05T17:08:11.888Z,84.69
2019-02-05T17:10:41.177Z,84.32
2019-02-05T17:13:11.757Z,84.36
2019-02-05T17:16:00.436Z,84.41
2019-02-05T17:18:30.188Z,84.28
2019-02-05T17:20:59.382Z,84.23
2019-02-05T17:23:29.005Z,84.21
2019-02-05T17:25:58.266Z,84.33
2019-02-05T17:28:27.690Z,84.04
2019-02-05T17:30:59.813Z,84.08
2019-02-05T17:33:29.226Z,84.31
2019-02-05T17:35:58.759Z,84.23
2019-02-05T17:38:27.967Z,84.04
2019-02-05T17:40:57.229Z,83.96
2019-02-05T17:43:27.553Z,84.14
2019-02-05T17:45:56.799Z,83.90
2019-02-05T17:48:26.337Z,83.87
2019-02-05T17:50:56.095Z,83.91
2019-02-05T17:53:25.345Z,83.65
2019-02-05T17:55:54.598Z,83.46
2019-02-05T17:58:23.799Z,83.17
2019-02-05T18:01:00.985Z,83.30
2019-02-05T18:03:30.222Z,83.32
2019-02-05T18:05:59.540Z,83.39
2019-02-05T18:08:30.478Z,83.19
2019-02-05T18:10:59.727Z,83.03
2019-02-05T18:13:28.981Z,82.56
2019-02-05T18:15:59.776Z,82.52
2019-02-05T18:18:29.031Z,82.39
2019-02-05T18:20:58.268Z,82.27
2019-02-05T18:23:27.476Z,82.23
2019-02-05T18:25:56.789Z,82.08
2019-02-05T18:28:26.271Z,81.89
2019-02-05T18:30:56.042Z,81.61
2019-02-05T18:33:25.277Z,81.42
2019-02-05T18:35:54.762Z,81.65
2019-02-05T18:38:24.036Z,81.33
2019-02-05T18:40:53.240Z,81.01
2019-02-05T18:43:22.582Z,80.90
2019-02-05T18:45:52.115Z,80.79
2019-02-05T18:48:21.729Z,80.74
2019-02-05T18:50:51.060Z,80.65
2019-02-05T18:53:20.336Z,80.50
2019-02-05T18:55:49.553Z,80.41
2019-02-05T18:58:18.818Z,80.31
2019-02-05T19:00:48.346Z,79.78
2019-02-05T19:03:17.636Z,79.70
2019-02-05T19:05:47.356Z,79.08
2019-02-05T19:08:16.970Z,78.87
2019-02-05T19:10:46.190Z,78.74
2019-02-05T19:13:15.571Z,78.43
2019-02-05T19:15:45.156Z,78.18
2019-02-05T19:18:14.433Z,77.95
2019-02-05T19:20:43.770Z,77.88
2019-02-05T19:23:12.978Z,77.78
2019-02-05T19:25:49.365Z,77.83
2019-02-05T19:28:26.066Z,77.53
2019-02-05T19:30:56.914Z,77.76
2019-02-05T19:33:27.479Z,77.67
2019-02-05T19:35:56.903Z,77.72
2019-02-05T19:38:26.105Z,77.48
2019-02-05T19:40:57.459Z,77.67
2019-02-05T19:43:26.351Z,77.87
2019-02-05T19:46:13.171Z,77.93
2019-02-05T19:48:49.073Z,77.90
2019-02-05T19:51:18.210Z,77.06
2019-02-05T19:53:47.556Z,77.32
2019-02-05T19:56:16.757Z,77.57
2019-02-05T19:58:46.219Z,77.58
2019-02-05T20:01:18.394Z,77.78
2019-02-05T20:03:46.464Z,77.63
2019-02-05T20:06:15.699Z,77.76
2019-02-05T20:08:44.945Z,77.69
2019-02-05T20:11:14.149Z,77.83
2019-02-05T20:13:43.357Z,77.74
2019-02-05T20:16:12.695Z,77.74
2019-02-05T20:18:41.889Z,77.90
2019-02-05T20:21:11.168Z,77.81
2019-02-05T20:23:40.407Z,77.93
2019-02-05T20:26:09.615Z,77.88
2019-02-05T20:28:39.260Z,78.03
2019-02-05T20:31:08.460Z,77.97
2019-02-05T20:33:37.916Z,77.87
2019-02-05T20:36:07.115Z,77.94
2019-02-05T20:38:36.591Z,77.98
2019-02-05T20:41:06.030Z,77.77
2019-02-05T20:43:35.576Z,77.84
2019-02-05T20:46:04.781Z,78.02
2019-02-05T20:48:34.057Z,78.33
2019-02-05T20:51:04.175Z,78.42
2019-02-05T20:53:33.416Z,78.36
2019-02-05T20:56:02.640Z,78.52
2019-02-05T20:58:31.893Z,78.67
2019-02-05T21:01:01.443Z,78.64
2019-02-05T21:03:31.682Z,78.67
2019-02-05T21:06:00.950Z,78.85
2019-02-05T21:08:30.157Z,78.86
2019-02-05T21:10:59.399Z,78.70
2019-02-05T21:13:28.612Z,78.66
2019-02-05T21:15:57.861Z,78.50
2019-02-05T21:18:27.060Z,78.44
2019-02-05T21:20:56.402Z,78.56
2019-02-05T21:23:25.752Z,78.75
2019-02-05T21:25:54.967Z,78.77
2019-02-05T21:28:24.227Z,78.75
2019-02-05T21:30:53.434Z,78.73
2019-02-05T21:33:23.060Z,78.60
2019-02-05T21:35:52.401Z,78.63
2019-02-05T21:38:21.589Z,78.55
2019-02-05T21:40:50.834Z,78.38
2019-02-05T21:43:20.139Z,78.27
2019-02-05T21:45:49.423Z,78.59
2019-02-05T21:48:18.619Z,78.59
2019-02-05T21:50:48.013Z,78.10
2019-02-05T21:53:17.260Z,78.06
2019-02-05T21:55:46.589Z,78.06
2019-02-05T21:58:15.840Z,78.02
2019-02-05T22:00:46.040Z,77.92
2019-02-05T22:03:15.463Z,78.04
2019-02-05T22:05:45.172Z,77.97
2019-02-05T22:08:14.429Z,78.09
2019-02-05T22:10:43.768Z,78.06
2019-02-05T22:13:12.956Z,78.19
2019-02-05T22:15:42.197Z,78.17
2019-02-05T22:18:11.396Z,78.43
2019-02-05T22:20:40.632Z,78.28
2019-02-05T22:23:10.308Z,78.33
2019-02-05T22:25:39.550Z,78.45
2019-02-05T22:28:08.794Z,78.41
2019-02-05T22:30:38.870Z,78.33
2019-02-05T22:33:08.585Z,78.19
2019-02-05T22:35:37.821Z,78.27
2019-02-05T22:38:07.023Z,78.19
2019-02-05T22:40:36.216Z,78.10
2019-02-05T22:43:05.895Z,78.09
2019-02-05T22:45:35.079Z,78.02
2019-02-05T22:48:04.452Z,77.88
2019-02-05T22:50:35.905Z,77.71
2019-02-05T22:53:07.349Z,77.65
2019-02-05T22:55:36.704Z,77.61
2019-02-05T22:58:06.171Z,77.50
2019-02-05T23:00:51.058Z,77.48
2019-02-05T23:03:32.476Z,77.57
2019-02-05T23:06:20.047Z,77.44
2019-02-05T23:08:49.305Z,77.25
2019-02-05T23:11:22.095Z,76.93
2019-02-05T23:13:51.313Z,77.04
2019-02-05T23:16:20.622Z,77.21
2019-02-05T23:18:49.821Z,77.35
2019-02-05T23:21:19.057Z,77.19
2019-02-05T23:23:48.257Z,77.31
2019-02-05T23:26:17.876Z,77.66
2019-02-05T23:28:47.112Z,77.71
2019-02-05T23:31:16.394Z,77.58
2019-02-05T23:33:45.570Z,77.14
2019-02-05T23:36:14.787Z,76.88
2019-02-05T23:38:44.023Z,76.91
2019-02-05T23:41:13.733Z,77.11
2019-02-05T23:43:43.250Z,77.20
2019-02-05T23:46:12.494Z,76.92
2019-02-05T23:48:41.758Z,76.92
2019-02-05T23:51:11.332Z,77.06
2019-02-05T23:53:40.573Z,77.16
2019-02-05T23:56:10.177Z,77.15
2019-02-05T23:58:39.386Z,77.02
